This is the latest recevied weather packets stored in our database for station/object OM1PU-6. If no packets are shown the sender has not sent any weather packets the latest 10 day(s).
| Time | Temp. | Humidity | Pressure | Rain* | Wind** | Luminosity | Snow |
|---|---|---|---|---|---|---|---|
| 1788089156 | 30.56° C | 38% | 1013 hPa | 0 mm | - | - | - |
| 1788088256 | 29.44° C | 43% | 1013 hPa | 0 mm | - | - | - |
| 1788087356 | 30° C | 41% | 1013.1 hPa | 0 mm | - | - | - |
| 1788086456 | 30° C | 44% | 1013.1 hPa | 0 mm | - | - | - |
| 1788085557 | 28.89° C | 45% | 1013.5 hPa | 0 mm | - | - | - |
| 1788084656 | 28.89° C | 47% | 1013.6 hPa | 0 mm | - | - | - |
| 1788083756 | 28.89° C | 47% | 1013.6 hPa | 0 mm | - | - | - |
| 1788082856 | 28.33° C | 47% | 1013.5 hPa | 0 mm | - | - | - |
| 1788081956 | 27.78° C | 48% | 1013.8 hPa | 0 mm | - | - | - |
| 1788081056 | 27.78° C | 48% | 1013.9 hPa | 0 mm | - | - | - |
| 1788080156 | 27.78° C | 50% | 1013.8 hPa | 0 mm | - | - | - |
| 1788079257 | 28.33° C | 47% | 1013.9 hPa | 0 mm | - | - | - |
| 1788078356 | 28.33° C | 50% | 1014.1 hPa | 0 mm | - | - | - |
| 1788077457 | 28.33° C | 48% | 1013.9 hPa | 0 mm | - | - | - |
| 1788076557 | 26.67° C | 54% | 1014.1 hPa | 0 mm | - | - | - |
| 1788075656 | 23.89° C | 61% | 1014.1 hPa | 0 mm | - | - | - |
| 1788074756 | 25.56° C | 58% | 1014 hPa | 0 mm | - | - | - |
| 1788073857 | 25° C | 61% | 1013.9 hPa | 0 mm | - | - | - |
| 1788072957 | 23.33° C | 64% | 1013.8 hPa | 0 mm | - | - | - |
| 1788072056 | 20° C | 76% | 1013.7 hPa | 0 mm | - | - | - |
| 1788071157 | 18.89° C | 78% | 1013.7 hPa | 0 mm | - | - | - |
| 1788070256 | 18.33° C | 80% | 1013.6 hPa | 0 mm | - | - | - |
| 1788069356 | 17.78° C | 83% | 1013.4 hPa | 0 mm | - | - | - |
| 1788068456 | 16.67° C | 85% | 1013.6 hPa | 0 mm | - | - | - |
| 1788067556 | 16.11° C | 86% | 1013.2 hPa | 0 mm | - | - | - |
* Rain latest 24 hours (hover to see other rain measurements)
** Current wind speed in m/s (hover to see current wind gust speed)